Bemidji Regional Airport
KBJI : now visible

Airfield :











YOU CAN JOIN US ON...

 
LOGIN :

Register | Disclaimer

   EN    FR    IT 

 









Legend :    VFR   Marginal VFR   IFR   Intensive IFR   Very Intensive IFR
Visi :
Ceiling :
>= 8 km
>= 3000ft
5 to 8 km
1000 to 3000 ft
1500m to 5 km
500 to 1000 ft
800 to 1500m
200 to 500 ft
< 800m
< 200 ft
Symbols :   Thunderstorms  Fog  Heavy snow  Heavy precipitations  Wind > 20 kt






- Airport Elevation : 1391 ft


KBJI - Bemidji Regional

CURRENT METAR :
  • 140055Z AUTO 31006KT 4SM -SN SCT011 BKN023 OVC038 M08/M09 A2981 RMK AO2 T10801095

EXPIRED METARs :
  • 140036Z AUTO 31007KT 7SM -SN SCT012 OVC019 M08/M09 A2980 RMK AO2 T10781095
  • 140016Z AUTO 30005KT 4SM -SN OVC014 M08/M09 A2980 RMK AO2 T10791093
  • 132355Z AUTO 27003KT 5SM -SN OVC016 M08/M09 A2980 RMK AO2 T10801095 11073 21085
  • 132335Z AUTO 00000KT 5SM -SN OVC016 M08/M10 A2980 RMK AO2 T10801096
  • 132315Z AUTO 00000KT 4SM -SN OVC016 M08/M10 A2980 RMK AO2 T10791096
  • 132256Z AUTO 00000KT 5SM -SN OVC020 M08/M10 A2980 RMK AO2 T10771098
  • 132235Z AUTO 26003KT 7SM -SN OVC020 M08/M10 A2979 RMK AO2 T10771096

TAF KBJI
Valid from the 14 at 00:00 until the 15 at 00:00 UTC


132321Z 1400/1424 VRB03KT 4SM -SN OVC018
FM140300 31009KT P6SM -SN OVC017
FM140600 32011KT P6SM BKN015
FM141400 33010KT P6SM SCT050



MET'MAP, your aeronautical weather chart ! - Copyright ORBIFLY December 2007 - Disclaimer

ORBIFLY MET'MAP TEAM :

Programming & Development : Alexandra Zaïnal
Concept & original design : Baudouin d'Aumeries
Assistance for programming : Marc-Olivier Méhu
Technical & hardware support : Manuel Goepfert

Contact : metmap@orbifly.com




SOURCES & CREDITS :

   NOAA       Earth
Advisory